createdAt,value
2023-10-25T00:00:42.523Z,16.42
2023-10-25T00:05:45.183Z,23.13
2023-10-25T00:10:47.278Z,20.20
2023-10-25T00:15:50.752Z,19.23
2023-10-25T00:20:53.267Z,13.40
2023-10-25T00:25:55.283Z,9.13
2023-10-25T00:30:57.798Z,16.48
2023-10-25T00:36:01.064Z,15.40
2023-10-25T00:41:06.256Z,15.50
2023-10-25T00:46:27.033Z,15.77
2023-10-25T00:51:31.816Z,17.33
2023-10-25T01:02:12.540Z,12.00
2023-10-25T01:07:25.924Z,17.02
2023-10-25T01:12:33.939Z,17.83
2023-10-25T01:17:49.582Z,17.70
2023-10-25T01:23:26.582Z,17.10
2023-10-25T01:28:30.326Z,11.73
2023-10-25T01:33:41.623Z,15.52
2023-10-25T01:39:07.442Z,16.38
2023-10-25T01:44:43.305Z,17.42
2023-10-25T01:50:01.444Z,19.30
2023-10-25T01:55:15.900Z,31.00
2023-10-25T02:00:28.266Z,21.85
2023-10-25T02:05:33.514Z,15.73
2023-10-25T02:10:39.667Z,21.55
2023-10-25T02:16:13.924Z,10.30
2023-10-25T02:21:36.776Z,21.98
2023-10-25T02:32:06.689Z,33.45
2023-10-25T02:42:45.935Z,17.98
2023-10-25T02:48:25.559Z,48.08
2023-10-25T02:53:28.299Z,14.80
2023-10-25T02:59:02.525Z,17.65
2023-10-25T03:04:25.901Z,11.50
2023-10-25T03:09:47.918Z,1.95
2023-10-25T03:14:52.880Z,10.13
2023-10-25T03:20:02.437Z,8.48
2023-10-25T03:25:16.770Z,10.10
2023-10-25T03:30:41.785Z,19.52
2023-10-25T03:36:13.872Z,8.57
2023-10-25T03:42:17.948Z,8.95
2023-10-25T03:47:21.249Z,10.60
2023-10-25T03:52:26.932Z,5.35
2023-10-25T03:58:08.863Z,28.85
2023-10-25T04:08:45.435Z,8.93
2023-10-25T04:13:47.489Z,4.85
2023-10-25T04:18:55.632Z,8.73
2023-10-25T04:24:02.795Z,14.57
2023-10-25T04:29:28.852Z,15.25
2023-10-25T04:34:33.934Z,2.75
2023-10-25T04:39:44.055Z,11.77
2023-10-25T04:44:55.031Z,6.93
2023-10-25T04:50:02.548Z,6.35
2023-10-25T04:55:09.156Z,5.55
2023-10-25T05:00:50.400Z,8.80
2023-10-25T05:05:56.373Z,8.15
2023-10-25T05:16:42.309Z,10.07
2023-10-25T05:22:03.169Z,4.25
2023-10-25T05:27:09.803Z,14.65
2023-10-25T05:32:22.029Z,7.10
2023-10-25T05:37:35.649Z,4.22
2023-10-25T05:42:52.231Z,7.75
2023-10-25T05:48:29.140Z,8.35
2023-10-25T05:55:48.983Z,12.38
2023-10-25T06:00:57.258Z,6.18
2023-10-25T06:06:20.804Z,11.90
2023-10-25T06:22:10.999Z,12.30
2023-10-25T06:27:37.387Z,14.52
2023-10-25T06:32:44.804Z,5.53
2023-10-25T06:38:10.273Z,14.30
2023-10-25T06:43:56.602Z,10.00
2023-10-25T06:49:24.221Z,10.85
2023-10-25T07:00:41.972Z,8.80
2023-10-25T07:05:51.343Z,10.60
2023-10-25T07:11:18.158Z,16.23
2023-10-25T07:16:47.182Z,7.13
2023-10-25T07:22:37.855Z,14.80
2023-10-25T07:28:24.263Z,7.68
2023-10-25T07:34:03.797Z,11.15
2023-10-25T07:40:04.182Z,17.63
2023-10-25T07:45:26.858Z,17.85
2023-10-25T07:50:38.880Z,17.67
2023-10-25T08:01:28.495Z,14.70
2023-10-25T08:06:37.301Z,11.63
2023-10-25T08:11:42.071Z,18.52
2023-10-25T08:17:03.124Z,11.73
2023-10-25T08:22:10.215Z,14.50
2023-10-25T08:27:48.130Z,4.95
2023-10-25T08:32:54.891Z,8.18
2023-10-25T08:37:57.169Z,4.22
2023-10-25T08:43:05.970Z,15.05
2023-10-25T08:53:41.190Z,10.23
2023-10-25T08:58:45.547Z,4.70
2023-10-25T09:10:08.535Z,2.45
2023-10-25T09:20:37.032Z,2.50
2023-10-25T09:25:45.724Z,1.15
2023-10-25T09:31:55.068Z,7.47
2023-10-25T09:37:26.886Z,9.05
2023-10-25T09:43:04.034Z,2.13
2023-10-25T09:48:25.751Z,3.30
2023-10-25T09:53:54.709Z,5.10
2023-10-25T09:59:13.974Z,5.15
2023-10-25T10:05:04.424Z,2.30
2023-10-25T10:10:41.823Z,8.25
2023-10-25T10:16:07.004Z,3.75
2023-10-25T10:21:45.052Z,2.70
2023-10-25T10:26:54.748Z,8.68
2023-10-25T10:31:58.808Z,3.20
2023-10-25T10:37:30.255Z,5.38
2023-10-25T10:42:36.942Z,3.88
2023-10-25T10:48:49.033Z,3.03
2023-10-25T10:59:33.625Z,2.08
2023-10-25T11:04:48.090Z,3.95
2023-10-25T11:10:48.354Z,2.95
2023-10-25T11:16:37.500Z,3.33
2023-10-25T11:21:40.332Z,4.22
2023-10-25T11:26:44.267Z,3.03
2023-10-25T11:31:52.367Z,3.17
2023-10-25T11:36:54.538Z,4.57
2023-10-25T11:43:04.734Z,3.70
2023-10-25T11:48:07.513Z,2.72
2023-10-25T11:53:12.457Z,2.28
2023-10-25T11:58:16.856Z,2.47
2023-10-25T12:03:18.893Z,1.35
2023-10-25T12:08:21.044Z,8.18
2023-10-25T12:13:22.917Z,4.45
2023-10-25T12:18:25.631Z,1.48
2023-10-25T12:23:28.135Z,6.40
2023-10-25T12:28:30.162Z,2.88
2023-10-25T12:33:32.112Z,6.45
2023-10-25T12:44:13.334Z,2.53
2023-10-25T12:49:18.245Z,6.80
2023-10-25T12:54:20.260Z,3.28
2023-10-25T12:59:22.353Z,11.15
2023-10-25T13:04:26.890Z,2.97
2023-10-25T13:09:30.125Z,2.03
2023-10-25T13:14:32.040Z,4.75
2023-10-25T13:19:34.304Z,6.05
2023-10-25T13:24:37.422Z,3.28
2023-10-25T13:29:39.793Z,9.15
2023-10-25T13:34:46.031Z,2.17
2023-10-25T13:39:51.675Z,0.95
2023-10-25T13:44:56.616Z,6.05
2023-10-25T13:49:59.165Z,7.15
2023-10-25T13:55:01.891Z,0.82
2023-10-25T14:00:08.002Z,4.30
2023-10-25T14:05:14.540Z,6.43
2023-10-25T14:10:16.541Z,3.70
2023-10-25T14:15:18.849Z,4.82
2023-10-25T14:20:21.000Z,2.20
2023-10-25T14:25:22.897Z,2.75
2023-10-25T14:30:25.034Z,4.43
2023-10-25T14:35:29.166Z,3.53
2023-10-25T14:40:43.033Z,2.30
2023-10-25T14:45:50.336Z,1.55
2023-10-25T14:50:57.218Z,4.97
2023-10-25T14:56:00.513Z,5.97
2023-10-25T15:01:02.633Z,5.45
2023-10-25T15:06:04.685Z,4.30
2023-10-25T15:11:06.659Z,3.67
2023-10-25T15:16:13.200Z,1.25
2023-10-25T15:21:34.444Z,2.20
2023-10-25T15:26:36.524Z,6.22
2023-10-25T15:31:38.456Z,8.20
2023-10-25T15:36:40.407Z,5.53
2023-10-25T15:41:44.814Z,3.35
2023-10-25T15:46:48.637Z,2.17
2023-10-25T15:51:50.885Z,1.23
2023-10-25T15:56:54.691Z,7.60
2023-10-25T16:02:10.264Z,5.28
2023-10-25T16:07:27.282Z,3.08
2023-10-25T16:12:34.738Z,8.15
2023-10-25T16:17:44.137Z,4.10
2023-10-25T16:28:20.419Z,9.75
2023-10-25T16:33:24.178Z,9.68
2023-10-25T16:38:30.390Z,7.38
2023-10-25T16:43:34.321Z,10.30
2023-10-25T16:48:55.673Z,9.50
2023-10-25T16:54:03.624Z,13.93
2023-10-25T16:59:08.370Z,18.23
2023-10-25T17:04:10.409Z,16.58
2023-10-25T17:09:19.838Z,22.30
2023-10-25T17:14:28.342Z,7.47
2023-10-25T17:19:36.531Z,20.58
2023-10-25T17:24:40.672Z,24.05
2023-10-25T17:29:42.797Z,9.48
2023-10-25T17:35:06.464Z,14.02
2023-10-25T17:40:16.139Z,20.98
2023-10-25T17:45:20.441Z,13.45
2023-10-25T17:50:25.938Z,17.30
2023-10-25T17:55:28.938Z,13.88
2023-10-25T18:00:31.648Z,11.88
2023-10-25T18:05:35.738Z,15.82
2023-10-25T18:10:50.044Z,9.48
2023-10-25T18:15:52.531Z,12.23
2023-10-25T18:20:58.740Z,14.05
2023-10-25T18:26:13.316Z,10.98
2023-10-25T18:37:02.604Z,15.65
2023-10-25T18:48:34.374Z,17.02
2023-10-25T18:53:57.728Z,13.40
2023-10-25T18:59:16.906Z,9.18
2023-10-25T19:04:32.120Z,9.07
2023-10-25T19:15:32.200Z,7.90
2023-10-25T19:20:36.515Z,6.20
2023-10-25T19:25:38.511Z,11.40
2023-10-25T19:31:03.748Z,6.55
2023-10-25T19:36:09.737Z,5.65
2023-10-25T19:41:26.827Z,4.47
2023-10-25T19:46:32.188Z,4.70
2023-10-25T19:51:52.172Z,5.85
2023-10-25T19:56:56.847Z,5.55
2023-10-25T20:01:58.813Z,3.03
2023-10-25T20:07:00.700Z,4.22
2023-10-25T20:12:02.825Z,2.78
2023-10-25T20:17:04.747Z,2.53
2023-10-25T20:22:08.355Z,4.25
2023-10-25T20:27:10.273Z,1.42
2023-10-25T20:32:27.045Z,4.18
2023-10-25T20:37:33.590Z,4.13
2023-10-25T20:48:19.109Z,1.52
2023-10-25T20:53:22.444Z,2.00
2023-10-25T20:58:25.234Z,4.18
2023-10-25T21:03:27.532Z,19.58
2023-10-25T21:08:30.880Z,20.17
2023-10-25T21:13:33.440Z,51.08
2023-10-25T21:18:35.626Z,45.60
2023-10-25T21:23:41.600Z,55.17
2023-10-25T21:28:44.727Z,53.72
2023-10-25T21:33:47.626Z,42.60
2023-10-25T21:38:49.824Z,51.78
2023-10-25T21:43:55.694Z,38.00
2023-10-25T21:48:57.804Z,49.60
2023-10-25T21:54:02.650Z,51.42
2023-10-25T21:59:49.802Z,51.75
2023-10-25T22:04:32.483Z,61.00
2023-10-25T22:09:35.897Z,71.47
2023-10-25T22:14:39.125Z,60.58
2023-10-25T22:19:41.163Z,43.10
2023-10-25T22:24:43.378Z,46.38
2023-10-25T22:29:45.512Z,55.53
2023-10-25T22:34:47.776Z,49.50
2023-10-25T22:39:56.487Z,42.90
2023-10-25T22:44:59.321Z,50.88
2023-10-25T22:50:01.335Z,52.70
2023-10-25T22:55:05.171Z,63.88
2023-10-25T23:00:19.857Z,48.45
2023-10-25T23:05:26.739Z,39.05
2023-10-25T23:10:40.763Z,49.05
2023-10-25T23:21:06.188Z,54.13
2023-10-25T23:26:21.997Z,44.17
2023-10-25T23:31:26.769Z,42.55
2023-10-25T23:36:34.642Z,68.70
2023-10-25T23:41:47.748Z,55.13
2023-10-25T23:46:55.824Z,49.17
2023-10-25T23:51:59.805Z,69.30
2023-10-25T23:57:04.515Z,48.45
